Flight Track Log - Related Links

Times and Time Zones

All times are in EDT time to prevent confusion due to time zone crossing. See the UAL4191 flight status page for this flight to view local times or setup timezone preferences in your user account.

Time Position Orientation Groundspeed Altitude Reporting Facility
EDT Latitude Longitude Course Direction KTS MPH feet Rate Location/Type
Mon 03:33:58 PM 29.9550 -95.3394 106° East 184 212 700  Level Houston Center
Mon 03:35:06 PM 29.9383 -95.2717 106° East 235 270 2,700 1,535 Climbing Houston Center
Mon 03:36:07 PM 29.9436 -95.1914 86° East 255 293 4,000 976 Climbing Houston Center
Mon 03:37:09 PM 29.9531 -95.1131 82° East 250 288 4,700 1,767 Climbing Houston Center
Mon 03:38:16 PM 29.9378 -95.0186 101° East 264 304 7,800 2,531 Climbing Houston Center
Mon 03:39:17 PM 29.9292 -94.9347 97° East 270 311 10,100 1,463 Climbing Houston Center
Mon 03:40:19 PM 29.9178 -94.8311 97° East 311 358 10,800 1,113 Climbing Houston Center
Mon 03:41:21 PM 29.9058 -94.7133 97° East 362 417 12,400 1,597 Climbing Houston Center
Mon 03:42:23 PM 29.8922 -94.5956 98° East 369 425 14,100 1,500 Climbing Houston Center
Mon 03:43:25 PM 29.8800 -94.4728 97° East 379 436 15,500 1,452 Climbing Houston Center
Mon 03:44:27 PM 29.8653 -94.3472 98° East 391 450 17,100 1,887 Climbing Houston Center
Mon 03:45:29 PM 29.8572 -94.1969 93° East 394 453 19,400 2,160 Climbing Houston Center
Mon 03:46:32 PM 29.8539 -94.0756 92° East 388 447 21,600 1,680 Climbing Houston Center
Mon 03:47:34 PM 29.8619 -93.9569 85° East 384 442 22,900 1,210 Climbing Houston Center
Mon 03:48:36 PM 29.8764 -93.8303 82° East 393 452 24,100 1,548 Climbing Houston Center
Mon 03:49:38 PM 29.8894 -93.7053 83° East 396 456 26,100 1,935 Climbing Houston Center
Mon 03:50:40 PM 29.9039 -93.5608 83° East 386 444 28,100 1,403 Climbing Houston Center
Mon 03:51:42 PM 29.9167 -93.4394 83° East 384 442 29,000 435 Climbing Houston Center
Mon 03:52:44 PM 29.9297 -93.3092 83° East 409 471 29,000  Level Houston Center
Mon 03:53:46 PM 29.9442 -93.1683 83° East 440 506 29,000 624 Level Houston Center
Mon 03:54:49 PM 29.9617 -92.9942 83° East 459 528 30,300 1,872 Climbing Houston Center
Mon 03:55:51 PM 29.9739 -92.8642 84° East 415 478 32,900 1,790 Climbing Houston Center
Mon 03:56:53 PM 29.9839 -92.7383 85° East 398 458 34,000 823 Climbing Houston Center
Mon 03:57:55 PM 29.9942 -92.6100 85° East 402 463 34,600 532 Climbing Houston Center
Mon 03:58:57 PM 30.0044 -92.4769 85° East 414 476 35,100 581 Climbing Houston Center
Mon 03:59:59 PM 30.0172 -92.3106 85° East 434 499 35,800 581 Climbing Houston Center
Mon 04:01:01 PM 30.0289 -92.1700 84° East 440 506 36,300 532 Climbing Houston Center
Mon 04:02:03 PM 30.0386 -92.0272 85° East 447 514 36,900 336 Climbing Houston Center
Mon 04:03:06 PM 30.0511 -91.8814 84° East 455 524 37,000 48 Climbing Houston Center
Mon 04:04:08 PM 30.0628 -91.7103 85° East 472 543 37,000  Level Houston Center
Mon 04:05:10 PM 30.0750 -91.5672 84° East 489 563 37,000  Level Houston Center
Mon 04:06:12 PM 30.0853 -91.4072 86° East 500 575 37,000  Level Houston Center
Mon 04:07:14 PM 30.0989 -91.2125 85° East 508 585 37,000  Level Houston Center
Mon 04:08:16 PM 30.1103 -91.0475 85° East 516 594 37,000  Level Houston Center
Mon 04:09:18 PM 30.1328 -90.8853 81° East 512 589 37,000  Level Houston Center
Mon 04:10:21 PM 30.1717 -90.7286 74° East 508 585 37,000  Level Houston Center
Mon 04:11:23 PM 30.2100 -90.5722 74° East 506 582 37,000  Level Houston Center
Mon 04:12:25 PM 30.2469 -90.4150 75° East 508 585 37,000  Level Houston Center
Mon 04:13:27 PM 30.2819 -90.2228 78° East 510 587 37,000  Level Houston Center
Mon 04:14:29 PM 30.3131 -90.0625 77° East 511 588 37,000  Level Houston Center
Mon 04:15:31 PM 30.3414 -89.9139 78° East 510 587 37,000  Level Houston Center
Mon 04:16:33 PM 30.3786 -89.7208 77° East 514 592 37,000  Level Houston Center
Mon 04:17:35 PM 30.4089 -89.5642 77° East 516 594 37,000  Level Houston Center
Mon 04:18:38 PM 30.4381 -89.4050 78° East 509 586 37,000 -48 Level Houston Center
Mon 04:19:40 PM 30.4686 -89.2442 78° East 511 588 36,900  Descending Houston Center
Mon 04:20:42 PM 30.4961 -89.0822 79° East 512 589 37,000 48 Climbing Houston Center
Mon 04:21:44 PM 30.5267 -88.9183 78° East 509 586 37,000  Level Houston Center
Mon 04:22:46 PM 30.5619 -88.7250 78° East 512 589 37,000  Level Houston Center
Mon 04:23:48 PM 30.5908 -88.5650 78° East 512 589 37,000  Level Houston Center
Mon 04:24:50 PM 30.6203 -88.4050 78° East 512 589 37,000  Level Houston Center
Mon 04:25:53 PM 30.6494 -88.2447 78° East 513 590 37,000  Level Houston Center
Mon 04:26:55 PM 30.6831 -88.0533 78° East 512 589 37,000  Level Houston Center
Mon 04:27:57 PM 30.7119 -87.8881 78° East 516 594 37,000  Level Houston Center
Mon 04:28:52 PM 30.7353 -87.7547 78° East 507 583 37,000  Level Jacksonville Center
Mon 04:29:52 PM 30.7622 -87.5919 79° East 502 578 37,000  Level Jacksonville Center
Mon 04:30:52 PM 30.8061 -87.4150 74° East 510 587 37,000  Level Jacksonville Center
Mon 04:31:52 PM 30.8431 -87.2572 75° East 510 587 37,000  Level Jacksonville Center
Mon 04:32:52 PM 30.8839 -87.0994 73° East 510 587 37,000  Level Jacksonville Center
Mon 04:33:52 PM 30.9225 -86.9389 74° East 510 587 37,000  Level Jacksonville Center
Mon 04:34:52 PM 30.9586 -86.7831 75° East 510 587 37,000  Level Jacksonville Center
Mon 04:35:52 PM 30.9947 -86.6244 75° East 505 581 37,000  Level Jacksonville Center
Mon 04:36:52 PM 31.0306 -86.4683 75° East 505 581 37,000  Level Jacksonville Center
Mon 04:37:52 PM 31.0614 -86.3289 75° East 505 581 37,000  Level Jacksonville Center
Mon 04:38:52 PM 31.0992 -86.1703 74° East 505 581 37,000  Level Jacksonville Center
Mon 04:39:52 PM 31.1344 -86.0136 75° East 505 581 37,000  Level Jacksonville Center
Mon 04:40:52 PM 31.1717 -85.8547 75° East 505 581 37,000 -50 Level Jacksonville Center
Mon 04:41:52 PM 31.2131 -85.6883 74° East 510 587 36,900  Descending Jacksonville Center
Mon 04:42:52 PM 31.2478 -85.5242 76° East 510 587 37,000  Climbing Jacksonville Center
Mon 04:43:52 PM 31.2864 -85.3650 74° East 510 587 36,900  Descending Jacksonville Center
Mon 04:44:52 PM 31.3208 -85.2078 76° East 504 580 37,000 50 Climbing Jacksonville Center
Mon 04:45:52 PM 31.3550 -85.0456 76° East 509 586 37,000 -200 Level Jacksonville Center
Mon 04:46:52 PM 31.3889 -84.8833 76° East 509 586 36,600 -500 Descending Jacksonville Center
Mon 04:47:52 PM 31.4267 -84.7258 74° East 509 586 36,000 -300 Descending Jacksonville Center
Mon 04:48:52 PM 31.4603 -84.5731 76° East 504 580 36,000  Level Jacksonville Center
Mon 04:49:52 PM 31.4956 -84.4106 76° East 504 580 36,000 -150 Level Jacksonville Center
Mon 04:50:52 PM 31.5286 -84.2575 76° East 498 573 35,700 -500 Descending Jacksonville Center
Mon 04:51:52 PM 31.5617 -84.1019 76° East 487 560 35,000 -590 Descending Jacksonville Center
Mon 04:53:55 PM 31.6275 -83.7828 76° East 489 563 33,900 -656 Descending Atlanta Center
Mon 04:54:55 PM 31.6644 -83.6314 74° East 501 577 33,000 -422 Descending Atlanta Center
Mon 04:56:03 PM 31.7019 -83.4347 77° East 486 559 33,000 -375 Level Jacksonville Center
Mon 04:57:03 PM 31.7339 -83.2786 76° East 486 559 32,200 -900 Descending Jacksonville Center
Mon 04:58:03 PM 31.7656 -83.1222 77° East 486 559 31,200 -1,100 Descending Jacksonville Center
Mon 04:59:03 PM 31.7969 -82.9708 76° East 486 559 30,000 -1,550 Descending Jacksonville Center
Mon 05:00:03 PM 31.8261 -82.8289 76° East 464 534 28,100 -1,500 Descending Jacksonville Center
Mon 05:01:03 PM 31.8572 -82.6797 76° East 458 527 27,000 -1,150 Descending Jacksonville Center
Mon 05:02:03 PM 31.8864 -82.5378 76° East 453 521 25,800 -1,000 Descending Jacksonville Center
Mon 05:03:03 PM 31.9131 -82.3983 77° East 448 516 25,000 -843 Descending Jacksonville Center
Mon 05:04:04 PM 31.9375 -82.2708 77° East 441 507 24,100 -500 Descending Jacksonville Center
Mon 05:05:03 PM 31.9700 -82.1064 77° East 458 527 24,000 -555 Descending Jacksonville Center
Mon 05:06:03 PM 32.0025 -81.9764 74° East 431 496 23,000 -500 Descending Jacksonville Center
Mon 05:07:03 PM 32.0644 -81.8825 52° Northeast 393 452 23,000  Level Jacksonville Center
Mon 05:08:03 PM 32.1469 -81.7614 51° Northeast 423 487 23,000  Level Jacksonville Center
Mon 05:09:03 PM 32.2211 -81.6550 50° Northeast 451 519 23,000  Level Jacksonville Center
Mon 05:10:03 PM 32.3136 -81.5208 51° Northeast 465 535 23,000  Level Jacksonville Center
Mon 05:11:03 PM 32.3978 -81.3942 52° Northeast 479 551 23,000  Level Jacksonville Center
Mon 05:12:03 PM 32.4736 -81.2844 51° Northeast 479 551 23,000  Level Jacksonville Center
Mon 05:13:04 PM 32.5575 -81.1622 51° Northeast 479 551 23,000 -1,000 Level Jacksonville Center
Mon 05:14:03 PM 32.6456 -81.0250 53° Northeast 474 545 21,000 -2,571 Descending Jacksonville Center
Mon 05:15:03 PM 32.7253 -80.9122 50° Northeast 464 534 17,900 -2,550 Descending Jacksonville Center
Mon 05:16:03 PM 32.7944 -80.8019 53° Northeast 433 498 15,900 -1,250 Descending Jacksonville Center
Mon 05:17:03 PM 32.8194 -80.6753 77° East 392 451 15,400 -600 Descending Jacksonville Center
Mon 05:18:03 PM 32.8339 -80.5514 82° East 380 437 14,700 -1,350 Descending Jacksonville Center
Mon 05:19:03 PM 32.8442 -80.4447 83° East 350 403 12,700 -2,050 Descending Jacksonville Center
Mon 05:20:03 PM 32.8569 -80.3503 81° East 331 381 10,600 -2,200 Descending Jacksonville Center
Mon 05:21:03 PM 32.8572 -80.2539 90° East 306 352 8,300 -2,300 Descending Jacksonville Center
Mon 05:22:03 PM 32.8489 -80.1653 96° East 282 325 6,000 -2,350 Descending Jacksonville Center
Mon 05:23:03 PM 32.9108 -80.1236 29° Northeast 230 265 3,600 -2,400 Descending Jacksonville Center

Login

Don't have an account? Register now (free) for customized features, flight alerts, and more!